createdAt,value
2022-08-05T00:00:17.649Z,17.12
2022-08-05T00:02:51.525Z,17.05
2022-08-05T00:06:03.279Z,17.08
2022-08-05T00:08:30.848Z,16.85
2022-08-05T00:11:01.518Z,16.36
2022-08-05T00:13:39.125Z,16.41
2022-08-05T00:16:10.867Z,16.63
2022-08-05T00:18:44.523Z,16.70
2022-08-05T00:21:12.525Z,16.84
2022-08-05T00:23:46.196Z,16.77
2022-08-05T00:26:16.378Z,16.81
2022-08-05T00:28:45.735Z,16.90
2022-08-05T00:31:13.196Z,16.77
2022-08-05T00:34:53.754Z,16.62
2022-08-05T00:37:11.542Z,16.03
2022-08-05T00:39:15.779Z,16.09
2022-08-05T00:41:55.278Z,16.11
2022-08-05T00:44:30.927Z,16.14
2022-08-05T00:47:01.852Z,16.33
2022-08-05T00:49:32.670Z,16.44
2022-08-05T00:52:00.602Z,16.36
2022-08-05T00:54:29.982Z,16.41
2022-08-05T00:56:57.430Z,16.46
2022-08-05T00:59:25.011Z,16.44
2022-08-05T01:01:52.212Z,16.31
2022-08-05T01:04:20.263Z,16.32
2022-08-05T01:06:57.287Z,16.28
2022-08-05T01:09:26.169Z,16.21
2022-08-05T01:12:09.100Z,16.05
2022-08-05T01:14:48.974Z,15.90
2022-08-05T01:17:16.866Z,16.01
2022-08-05T01:20:00.949Z,16.00
2022-08-05T01:22:48.729Z,16.02
2022-08-05T01:25:40.118Z,16.12
2022-08-05T01:28:21.868Z,15.92
2022-08-05T01:31:15.497Z,15.36
2022-08-05T01:33:49.186Z,15.42
2022-08-05T01:36:20.943Z,15.21
2022-08-05T01:38:49.802Z,15.52
2022-08-05T01:41:20.946Z,15.58
2022-08-05T01:43:50.178Z,15.69
2022-08-05T01:46:42.376Z,15.77
2022-08-05T01:49:23.381Z,15.70
2022-08-05T01:51:54.269Z,15.73
2022-08-05T01:54:25.636Z,15.62
2022-08-05T01:58:11.971Z,15.80
2022-08-05T01:59:42.506Z,15.71
2022-08-05T02:02:15.981Z,15.35
2022-08-05T02:04:46.102Z,15.06
2022-08-05T02:07:22.203Z,14.99
2022-08-05T02:09:51.234Z,15.21
2022-08-05T02:12:34.835Z,15.28
2022-08-05T02:15:12.956Z,15.16
2022-08-05T02:18:30.791Z,15.26
2022-08-05T02:20:46.950Z,15.10
2022-08-05T02:23:14.977Z,15.11
2022-08-05T02:25:49.453Z,15.12
2022-08-05T02:28:28.633Z,15.20
2022-08-05T02:31:02.542Z,15.14
2022-08-05T02:33:36.093Z,15.20
2022-08-05T02:36:09.407Z,15.11
2022-08-05T02:38:37.927Z,14.91
2022-08-05T02:41:17.399Z,14.99
2022-08-05T02:44:06.416Z,14.93
2022-08-05T02:46:35.333Z,14.80
2022-08-05T02:49:05.989Z,14.58
2022-08-05T02:52:03.823Z,14.65
2022-08-05T02:54:34.841Z,14.63
2022-08-05T02:57:10.338Z,14.46
2022-08-05T02:59:54.400Z,14.77
2022-08-05T03:02:24.698Z,14.46
2022-08-05T03:04:55.449Z,14.62
2022-08-05T03:08:00.175Z,14.77
2022-08-05T03:10:11.385Z,14.78
2022-08-05T03:12:41.192Z,14.71
2022-08-05T03:15:09.959Z,14.53
2022-08-05T03:17:41.541Z,14.63
2022-08-05T03:20:10.345Z,14.65
2022-08-05T03:22:37.696Z,14.91
2022-08-05T03:25:33.878Z,14.83
2022-08-05T03:28:00.698Z,14.49
2022-08-05T03:30:33.509Z,14.44
2022-08-05T03:33:02.006Z,14.61
2022-08-05T03:35:33.947Z,14.53
2022-08-05T03:38:07.997Z,14.49
2022-08-05T03:40:35.872Z,14.57
2022-08-05T03:43:58.474Z,14.64
2022-08-05T03:45:57.930Z,14.52
2022-08-05T03:48:27.041Z,14.35
2022-08-05T03:52:38.911Z,14.06
2022-08-05T03:55:51.169Z,14.23
2022-08-05T03:56:58.886Z,14.21
2022-08-05T03:59:46.976Z,13.90
2022-08-05T04:02:38.289Z,14.11
2022-08-05T04:05:09.604Z,14.07
2022-08-05T04:07:58.323Z,14.16
2022-08-05T04:10:33.263Z,14.33
2022-08-05T04:13:06.480Z,14.42
2022-08-05T04:15:36.428Z,14.62
2022-08-05T04:18:07.347Z,14.64
2022-08-05T04:20:36.933Z,14.73
2022-08-05T04:23:04.376Z,14.78
2022-08-05T04:25:57.371Z,14.71
2022-08-05T04:28:30.590Z,14.85
2022-08-05T04:30:58.409Z,14.74
2022-08-05T04:33:54.660Z,14.90
2022-08-05T04:36:44.985Z,14.86
2022-08-05T04:39:04.337Z,14.96
2022-08-05T04:41:36.737Z,14.92
2022-08-05T04:44:09.206Z,15.08
2022-08-05T04:46:38.243Z,14.90
2022-08-05T04:49:12.219Z,14.81
2022-08-05T04:51:43.506Z,15.02
2022-08-05T04:54:11.962Z,15.34
2022-08-05T04:56:39.621Z,15.50
2022-08-05T04:59:22.289Z,15.45
2022-08-05T05:02:35.713Z,15.60
2022-08-05T05:04:44.003Z,15.76
2022-08-05T05:07:22.948Z,15.86
2022-08-05T05:09:52.421Z,15.96
2022-08-05T05:12:22.217Z,15.83
2022-08-05T05:14:50.912Z,16.08
2022-08-05T05:17:23.939Z,16.30
2022-08-05T05:19:56.421Z,16.45
2022-08-05T05:22:26.300Z,16.45
2022-08-05T05:24:56.916Z,16.46
2022-08-05T05:27:44.838Z,16.82
2022-08-05T05:30:31.008Z,16.84
2022-08-05T05:33:09.285Z,16.67
2022-08-05T05:35:47.540Z,16.68
2022-08-05T05:38:22.768Z,17.01
2022-08-05T05:40:55.955Z,16.99
2022-08-05T05:43:54.810Z,16.90
2022-08-05T05:46:15.764Z,17.30
2022-08-05T05:48:46.007Z,17.38
2022-08-05T05:51:19.500Z,17.70
2022-08-05T05:53:57.464Z,17.93
2022-08-05T05:56:32.240Z,18.26
2022-08-05T05:59:03.284Z,18.42
2022-08-05T06:01:37.979Z,18.20
2022-08-05T06:04:07.421Z,18.31
2022-08-05T06:06:35.569Z,18.66
2022-08-05T06:09:07.654Z,18.85
2022-08-05T06:11:39.379Z,18.83
2022-08-05T06:14:06.899Z,18.91
2022-08-05T06:16:37.292Z,19.29
2022-08-05T06:19:07.562Z,19.09
2022-08-05T06:21:38.845Z,19.53
2022-08-05T06:24:11.792Z,19.54
2022-08-05T06:26:51.714Z,19.89
2022-08-05T06:29:25.248Z,19.91
2022-08-05T06:32:24.978Z,19.79
2022-08-05T06:34:58.679Z,20.16
2022-08-05T06:37:55.969Z,20.18
2022-08-05T06:40:18.392Z,20.42
2022-08-05T06:42:52.808Z,20.61
2022-08-05T06:45:44.634Z,20.77
2022-08-05T06:48:36.518Z,21.05
2022-08-05T06:50:56.632Z,21.19
2022-08-05T06:53:28.320Z,21.61
2022-08-05T06:55:59.680Z,21.58
2022-08-05T06:58:35.377Z,21.46
2022-08-05T07:01:07.412Z,21.63
2022-08-05T07:03:35.070Z,21.81
2022-08-05T07:06:05.863Z,22.13
2022-08-05T07:08:42.350Z,22.18
2022-08-05T07:11:15.085Z,22.53
2022-08-05T07:14:02.609Z,22.84
2022-08-05T07:17:57.266Z,23.11
2022-08-05T07:22:27.788Z,23.18
2022-08-05T07:25:23.486Z,23.55
2022-08-05T07:27:58.828Z,23.55
2022-08-05T07:30:32.702Z,23.50
2022-08-05T07:33:01.325Z,23.60
2022-08-05T07:36:03.190Z,23.90
2022-08-05T07:38:32.273Z,24.24
2022-08-05T07:41:35.215Z,24.51
2022-08-05T07:43:55.005Z,24.57
2022-08-05T07:46:26.075Z,24.88
2022-08-05T07:49:01.397Z,24.94
2022-08-05T07:51:40.963Z,25.10
2022-08-05T07:54:18.611Z,25.05
2022-08-05T07:57:02.672Z,25.06
2022-08-05T07:59:40.151Z,25.39
2022-08-05T08:02:15.988Z,25.71
2022-08-05T08:04:49.173Z,25.96
2022-08-05T08:07:18.388Z,26.08
2022-08-05T08:09:52.527Z,26.01
2022-08-05T08:12:37.490Z,26.12
2022-08-05T08:15:15.725Z,26.19
2022-08-05T08:17:50.660Z,26.27
2022-08-05T08:21:01.055Z,26.50
2022-08-05T08:24:03.224Z,26.33
2022-08-05T08:26:02.716Z,26.64
2022-08-05T08:28:36.311Z,26.87
2022-08-05T08:31:10.081Z,27.07
2022-08-05T08:33:43.677Z,27.18
2022-08-05T08:36:38.872Z,27.02
2022-08-05T08:38:58.628Z,27.36
2022-08-05T08:41:51.736Z,27.40
2022-08-05T08:45:20.786Z,27.20
2022-08-05T08:47:47.179Z,27.44
2022-08-05T08:50:23.022Z,27.80
2022-08-05T08:52:47.356Z,27.86
2022-08-05T08:56:02.051Z,28.19
2022-08-05T08:58:07.341Z,28.31
2022-08-05T09:00:36.254Z,28.40
2022-08-05T09:03:05.882Z,28.25
2022-08-05T09:05:38.808Z,28.28
2022-08-05T09:08:26.530Z,28.32
2022-08-05T09:10:55.095Z,28.62
2022-08-05T09:13:23.607Z,28.98
2022-08-05T09:15:51.357Z,28.88
2022-08-05T09:18:19.010Z,28.73
2022-08-05T09:20:47.301Z,28.87
2022-08-05T09:23:18.521Z,28.62
2022-08-05T09:26:01.308Z,28.73
2022-08-05T09:28:33.583Z,29.25
2022-08-05T09:31:18.258Z,29.38
2022-08-05T09:33:54.052Z,29.81
2022-08-05T09:36:21.746Z,29.82
2022-08-05T09:39:02.694Z,29.47
2022-08-05T09:41:33.221Z,29.88
2022-08-05T09:44:05.650Z,30.01
2022-08-05T09:46:34.984Z,29.68
2022-08-05T09:49:07.093Z,29.42
2022-08-05T09:51:37.657Z,29.62
2022-08-05T09:54:08.577Z,29.23
2022-08-05T09:56:38.205Z,29.46
2022-08-05T09:59:06.589Z,29.83
2022-08-05T10:01:36.543Z,30.18
2022-08-05T10:04:10.379Z,30.12
2022-08-05T10:06:54.628Z,29.85
2022-08-05T10:09:27.286Z,29.80
2022-08-05T10:12:18.531Z,29.40
2022-08-05T10:14:55.077Z,30.03
2022-08-05T10:17:37.770Z,30.35
2022-08-05T10:20:09.949Z,29.88
2022-08-05T10:22:42.816Z,29.92
2022-08-05T10:25:16.463Z,30.43
2022-08-05T10:28:13.527Z,30.82
2022-08-05T10:32:47.265Z,30.96
2022-08-05T10:33:21.498Z,31.34
2022-08-05T10:35:58.986Z,30.95
2022-08-05T10:38:28.382Z,30.43
2022-08-05T10:41:05.675Z,30.62
2022-08-05T10:43:52.453Z,30.51
2022-08-05T10:46:24.125Z,31.29
2022-08-05T10:49:10.148Z,31.57
2022-08-05T10:51:48.692Z,31.80
2022-08-05T10:54:56.577Z,31.12
2022-08-05T10:57:32.212Z,30.86
2022-08-05T11:00:18.186Z,30.83
2022-08-05T11:03:24.501Z,31.26
2022-08-05T11:06:14.593Z,31.51
2022-08-05T11:09:02.933Z,30.87
2022-08-05T11:11:51.980Z,30.73
2022-08-05T11:14:57.886Z,31.01
2022-08-05T11:17:59.134Z,31.39
2022-08-05T11:20:34.705Z,31.05
2022-08-05T11:23:23.201Z,30.84
2022-08-05T11:26:04.109Z,31.59
2022-08-05T11:28:35.919Z,31.64
2022-08-05T11:31:06.518Z,31.76
2022-08-05T11:33:48.160Z,31.53
2022-08-05T11:36:34.586Z,32.29
2022-08-05T11:39:09.051Z,32.77
2022-08-05T11:42:02.010Z,32.37
2022-08-05T11:44:53.063Z,32.05
2022-08-05T11:47:22.054Z,31.37
2022-08-05T11:50:08.719Z,31.43
2022-08-05T11:52:36.273Z,31.13
2022-08-05T11:55:07.758Z,30.79
2022-08-05T11:58:08.446Z,31.15
2022-08-05T12:00:30.344Z,31.60
2022-08-05T12:02:58.344Z,32.17
2022-08-05T12:05:36.403Z,32.41
2022-08-05T12:08:11.467Z,32.62
2022-08-05T12:10:45.519Z,32.24
2022-08-05T12:13:16.867Z,31.54
2022-08-05T12:15:50.196Z,31.46
2022-08-05T12:18:32.861Z,31.03
2022-08-05T12:21:12.805Z,30.90
2022-08-05T12:24:04.473Z,31.09
2022-08-05T12:26:44.258Z,31.18
2022-08-05T12:29:16.088Z,31.00
2022-08-05T12:31:53.723Z,30.52
2022-08-05T12:34:24.002Z,30.33
2022-08-05T12:36:53.781Z,31.00
2022-08-05T12:39:21.970Z,31.32
2022-08-05T12:41:51.395Z,31.79
2022-08-05T12:44:33.299Z,32.43
2022-08-05T12:47:02.471Z,32.35
2022-08-05T12:50:03.200Z,32.29
2022-08-05T12:52:33.964Z,31.96
2022-08-05T12:55:23.815Z,32.09
2022-08-05T12:58:39.188Z,31.81
2022-08-05T13:02:04.055Z,31.75
2022-08-05T13:03:41.566Z,31.85
2022-08-05T13:06:16.130Z,32.09
2022-08-05T13:08:49.084Z,31.96
2022-08-05T13:11:25.467Z,32.21
2022-08-05T13:14:15.003Z,32.69
2022-08-05T13:16:49.229Z,32.69
2022-08-05T13:19:17.028Z,32.72
2022-08-05T13:21:52.352Z,32.39
2022-08-05T13:24:27.606Z,32.57
2022-08-05T13:27:17.057Z,33.04
2022-08-05T13:30:31.662Z,33.29
2022-08-05T13:32:46.582Z,33.43
2022-08-05T13:35:22.125Z,33.30
2022-08-05T13:37:55.732Z,33.45
2022-08-05T13:40:36.835Z,33.00
2022-08-05T13:43:12.112Z,32.66
2022-08-05T13:45:43.280Z,33.20
2022-08-05T13:48:58.177Z,33.00
2022-08-05T13:51:05.276Z,32.55
2022-08-05T13:53:33.762Z,32.51
2022-08-05T13:56:18.330Z,32.06
2022-08-05T13:58:53.098Z,31.82
2022-08-05T14:01:25.938Z,32.13
2022-08-05T14:04:22.548Z,32.37
2022-08-05T14:06:58.719Z,32.09
2022-08-05T14:09:45.986Z,31.83
2022-08-05T14:12:18.132Z,31.93
2022-08-05T14:15:00.127Z,31.88
2022-08-05T14:17:28.261Z,31.82
2022-08-05T14:20:00.933Z,31.60
2022-08-05T14:22:30.328Z,31.62
2022-08-05T14:25:01.899Z,31.61
2022-08-05T14:27:33.862Z,31.91
2022-08-05T14:30:01.705Z,32.13
2022-08-05T14:32:31.797Z,31.87
2022-08-05T14:34:59.535Z,31.96
2022-08-05T14:37:45.600Z,31.97
2022-08-05T14:40:17.092Z,32.10
2022-08-05T14:42:44.608Z,32.78
2022-08-05T14:45:12.996Z,32.53
2022-08-05T14:48:05.175Z,32.28
2022-08-05T14:50:28.014Z,31.98
2022-08-05T14:52:59.781Z,31.89
2022-08-05T14:55:28.535Z,31.55
2022-08-05T14:58:11.611Z,31.32
2022-08-05T15:00:59.115Z,31.16
2022-08-05T15:03:33.555Z,31.02
2022-08-05T15:06:08.331Z,30.90
2022-08-05T15:08:58.188Z,31.07
2022-08-05T15:11:51.309Z,32.13
2022-08-05T15:14:33.348Z,33.95
2022-08-05T15:17:03.662Z,34.55
2022-08-05T15:19:32.275Z,34.47
2022-08-05T15:22:01.402Z,34.95
2022-08-05T15:24:29.086Z,36.12
2022-08-05T15:26:57.065Z,37.74
2022-08-05T15:29:29.737Z,37.80
2022-08-05T15:32:03.053Z,37.02
2022-08-05T15:34:33.209Z,34.29
2022-08-05T15:37:06.117Z,36.60
2022-08-05T15:41:00.432Z,37.68
2022-08-05T15:42:50.114Z,38.53
2022-08-05T15:45:11.533Z,39.02
2022-08-05T15:47:42.666Z,39.43
2022-08-05T15:50:15.436Z,37.80
2022-08-05T15:52:54.375Z,36.75
2022-08-05T15:55:24.660Z,35.90
2022-08-05T15:58:16.437Z,35.06
2022-08-05T16:00:56.958Z,35.28
2022-08-05T16:03:32.616Z,34.55
2022-08-05T16:06:01.199Z,34.36
2022-08-05T16:08:30.739Z,35.43
2022-08-05T16:10:59.065Z,35.88
2022-08-05T16:13:32.036Z,35.50
2022-08-05T16:16:03.197Z,34.62
2022-08-05T16:18:33.122Z,34.12
2022-08-05T16:21:04.375Z,33.26
2022-08-05T16:23:54.462Z,32.06
2022-08-05T16:26:26.661Z,31.97
2022-08-05T16:28:55.531Z,31.37
2022-08-05T16:31:23.244Z,31.15
2022-08-05T16:33:52.283Z,30.88
2022-08-05T16:36:23.962Z,30.31
2022-08-05T16:38:54.355Z,30.18
2022-08-05T16:42:15.370Z,29.77
2022-08-05T16:44:14.132Z,29.71
2022-08-05T16:46:55.775Z,29.33
2022-08-05T16:49:23.664Z,29.14
2022-08-05T16:51:54.837Z,28.92
2022-08-05T16:54:28.916Z,28.93
2022-08-05T16:56:59.598Z,28.71
2022-08-05T16:59:27.829Z,28.46
2022-08-05T17:01:58.129Z,28.02
2022-08-05T17:04:28.218Z,28.14
2022-08-05T17:07:03.550Z,27.88
2022-08-05T17:09:57.550Z,28.06
2022-08-05T17:12:51.120Z,27.61
2022-08-05T17:15:19.234Z,27.63
2022-08-05T17:17:54.863Z,27.40
2022-08-05T17:20:25.061Z,27.41
2022-08-05T17:22:55.650Z,27.32
2022-08-05T17:25:33.669Z,26.97
2022-08-05T17:28:01.991Z,26.95
2022-08-05T17:30:29.595Z,26.89
2022-08-05T17:32:56.862Z,26.44
2022-08-05T17:35:24.062Z,26.54
2022-08-05T17:37:53.002Z,26.44
2022-08-05T17:40:28.279Z,26.25
2022-08-05T17:42:59.776Z,26.04
2022-08-05T17:45:37.948Z,26.09
2022-08-05T17:48:08.178Z,25.89
2022-08-05T17:50:35.824Z,25.81
2022-08-05T17:53:04.856Z,25.54
2022-08-05T17:55:37.499Z,25.55
2022-08-05T17:58:11.188Z,25.43
2022-08-05T18:00:47.727Z,25.42
2022-08-05T18:03:56.417Z,25.28
2022-08-05T18:06:12.298Z,25.14
2022-08-05T18:08:52.395Z,25.16
2022-08-05T18:11:23.934Z,24.79
2022-08-05T18:13:52.611Z,24.87
2022-08-05T18:16:20.662Z,24.64
2022-08-05T18:18:49.779Z,24.47
2022-08-05T18:21:19.900Z,24.25
2022-08-05T18:23:53.964Z,24.15
2022-08-05T18:26:29.298Z,23.98
2022-08-05T18:28:57.522Z,24.15
2022-08-05T18:31:25.254Z,24.11
2022-08-05T18:33:54.551Z,24.12
2022-08-05T18:36:28.028Z,24.00
2022-08-05T18:38:56.198Z,23.84
2022-08-05T18:41:56.854Z,23.79
2022-08-05T18:44:12.766Z,23.79
2022-08-05T18:46:41.102Z,23.35
2022-08-05T18:49:30.657Z,23.42
2022-08-05T18:52:33.170Z,23.28
2022-08-05T18:55:01.467Z,23.30
2022-08-05T18:57:43.657Z,23.30
2022-08-05T19:00:28.395Z,23.16
2022-08-05T19:03:04.069Z,23.00
2022-08-05T19:06:13.166Z,22.78
2022-08-05T19:08:30.440Z,22.71
2022-08-05T19:11:04.842Z,22.55
2022-08-05T19:13:35.727Z,22.74
2022-08-05T19:16:04.357Z,22.86
2022-08-05T19:18:31.946Z,22.66
2022-08-05T19:21:00.353Z,22.52
2022-08-05T19:24:07.245Z,22.36
2022-08-05T19:26:18.608Z,21.43
2022-08-05T19:28:46.256Z,21.52
2022-08-05T19:31:17.854Z,21.37
2022-08-05T19:33:48.599Z,21.40
2022-08-05T19:36:24.956Z,21.63
2022-08-05T19:39:01.136Z,21.95
2022-08-05T19:41:58.093Z,21.62
2022-08-05T19:44:20.969Z,21.50
2022-08-05T19:46:50.119Z,21.44
2022-08-05T19:49:18.463Z,21.48
2022-08-05T19:52:09.158Z,21.61
2022-08-05T19:54:34.958Z,21.60
2022-08-05T19:57:06.613Z,21.48
2022-08-05T20:00:00.918Z,21.18
2022-08-05T20:02:26.474Z,21.21
2022-08-05T20:04:58.381Z,21.40
2022-08-05T20:07:46.772Z,21.37
2022-08-05T20:10:17.351Z,21.24
2022-08-05T20:12:48.993Z,21.16
2022-08-05T20:15:47.885Z,21.29
2022-08-05T20:18:10.267Z,21.36
2022-08-05T20:20:58.085Z,21.03
2022-08-05T20:23:40.409Z,21.05
2022-08-05T20:26:17.158Z,21.00
2022-08-05T20:28:45.652Z,20.93
2022-08-05T20:31:13.149Z,20.96
2022-08-05T20:33:42.427Z,20.88
2022-08-05T20:36:11.137Z,20.70
2022-08-05T20:38:40.844Z,20.40
2022-08-05T20:41:24.183Z,20.45
2022-08-05T20:44:00.010Z,20.64
2022-08-05T20:46:30.395Z,20.64
2022-08-05T20:48:59.209Z,20.45
2022-08-05T20:51:26.647Z,20.65
2022-08-05T20:53:57.158Z,20.24
2022-08-05T20:56:31.862Z,20.41
2022-08-05T20:59:18.885Z,20.36
2022-08-05T21:01:46.991Z,20.23
2022-08-05T21:04:15.388Z,19.94
2022-08-05T21:06:45.587Z,20.02
2022-08-05T21:09:14.409Z,20.13
2022-08-05T21:12:06.938Z,19.78
2022-08-05T21:14:31.998Z,19.81
2022-08-05T21:17:05.497Z,20.01
2022-08-05T21:19:47.067Z,20.11
2022-08-05T21:22:21.980Z,19.93
2022-08-05T21:24:54.961Z,19.79
2022-08-05T21:27:25.488Z,19.68
2022-08-05T21:29:55.679Z,19.79
2022-08-05T21:32:24.606Z,19.77
2022-08-05T21:35:08.576Z,19.38
2022-08-05T21:37:47.207Z,19.38
2022-08-05T21:40:22.631Z,19.64
2022-08-05T21:42:51.993Z,19.46
2022-08-05T21:45:25.057Z,19.45
2022-08-05T21:48:08.364Z,19.28
2022-08-05T21:50:36.681Z,19.05
2022-08-05T21:53:16.359Z,19.08
2022-08-05T21:56:05.395Z,19.12
2022-08-05T21:58:32.443Z,19.26
2022-08-05T22:01:00.959Z,19.13
2022-08-05T22:03:48.462Z,18.80
2022-08-05T22:06:22.776Z,18.93
2022-08-05T22:08:52.086Z,18.90
2022-08-05T22:11:34.721Z,18.74
2022-08-05T22:14:06.030Z,18.88
2022-08-05T22:16:52.578Z,18.82
2022-08-05T22:20:03.033Z,18.78
2022-08-05T22:22:08.644Z,18.71
2022-08-05T22:24:55.853Z,18.58
2022-08-05T22:28:09.240Z,18.47
2022-08-05T22:30:32.255Z,18.58
2022-08-05T22:33:03.225Z,18.33
2022-08-05T22:35:47.914Z,18.48
2022-08-05T22:38:15.774Z,18.47
2022-08-05T22:40:49.519Z,18.48
2022-08-05T22:43:36.593Z,18.42
2022-08-05T22:46:13.181Z,18.63
2022-08-05T22:48:42.075Z,18.68
2022-08-05T22:51:16.044Z,18.55
2022-08-05T22:53:51.161Z,18.61
2022-08-05T22:56:30.597Z,18.42
2022-08-05T22:58:59.986Z,18.52
2022-08-05T23:02:04.931Z,18.42
2022-08-05T23:04:19.388Z,18.37
2022-08-05T23:06:47.768Z,18.14
2022-08-05T23:09:52.723Z,18.15
2022-08-05T23:12:03.179Z,18.30
2022-08-05T23:14:32.670Z,17.89
2022-08-05T23:17:24.012Z,18.00
2022-08-05T23:19:56.351Z,18.17
2022-08-05T23:22:27.378Z,18.03
2022-08-05T23:24:55.791Z,17.84
2022-08-05T23:27:24.111Z,17.91
2022-08-05T23:29:56.471Z,17.64
2022-08-05T23:32:24.360Z,17.51
2022-08-05T23:34:54.537Z,17.65
2022-08-05T23:37:22.041Z,17.66
2022-08-05T23:39:54.002Z,17.88
2022-08-05T23:42:28.965Z,17.99
2022-08-05T23:44:57.205Z,17.79
2022-08-05T23:47:25.321Z,17.64
2022-08-05T23:49:55.587Z,17.60
2022-08-05T23:52:26.691Z,17.56
2022-08-05T23:55:07.146Z,17.72
2022-08-05T23:57:36.682Z,16.90
